Time;durP1;ratioP1;P1;durP2;ratioP2;P2;SDS_P1;SDS_P2;PMS_P1;PMS_P2;Temp;Humidity;BMP_temperature;BMP_pressure;BME280_temperature;BME280_humidity;BME280_pressure;Samples;Min_cycle;Max_cycle;Signal;HPM_P1;HPM_P2
2023/03/30 00:01:34;;;;;;;1.83;1.40;;;18.20;69.10;;;;;;5047459;28;20226;-46
2023/03/30 00:04:03;;;;;;;2.80;1.60;;;18.20;69.20;;;;;;5047568;28;20245;-46
2023/03/30 00:06:38;;;;;;;2.53;1.83;;;18.20;69.10;;;;;;5049397;28;20190;-46
2023/03/30 00:09:07;;;;;;;2.10;1.70;;;18.20;69.10;;;;;;5033852;28;20201;-46
2023/03/30 00:11:36;;;;;;;2.13;1.60;;;18.20;68.80;;;;;;5055331;28;20242;-47
2023/03/30 00:14:16;;;;;;;9.40;1.87;;;18.20;68.80;;;;;;5044660;28;20209;-47
2023/03/30 00:16:47;;;;;;;2.63;1.70;;;18.20;68.70;;;;;;5033863;28;20200;-46
2023/03/30 00:19:16;;;;;;;2.47;2.00;;;18.10;68.60;;;;;;5050338;28;20202;-47
2023/03/30 00:21:44;;;;;;;2.07;1.73;;;18.20;68.70;;;;;;5057681;28;20221;-47
2023/03/30 00:24:15;;;;;;;3.03;1.70;;;18.20;68.60;;;;;;5050473;28;20261;-47
2023/03/30 00:26:45;;;;;;;3.93;1.70;;;18.20;68.60;;;;;;5053004;28;20198;-46
2023/03/30 00:29:16;;;;;;;1.83;1.40;;;18.20;68.80;;;;;;5048564;28;20508;-47
2023/03/30 00:31:47;;;;;;;2.67;1.47;;;18.20;68.70;;;;;;5054915;28;20206;-46
2023/03/30 00:34:19;;;;;;;2.57;1.50;;;18.10;68.30;;;;;;5046443;28;20190;-46
2023/03/30 00:36:52;;;;;;;1.90;1.60;;;18.20;68.70;;;;;;5052919;28;20226;-47
2023/03/30 00:39:25;;;;;;;2.67;1.73;;;18.20;68.40;;;;;;5020025;28;20198;-46
2023/03/30 00:41:55;;;;;;;1.77;1.50;;;18.20;68.30;;;;;;5052250;28;20209;-47
2023/03/30 00:45:00;;;;;;;1.80;1.40;;;18.10;68.30;;;;;;5045701;28;20186;-47
2023/03/30 00:47:31;;;;;;;2.43;1.70;;;18.10;68.10;;;;;;5040713;28;20545;-46
2023/03/30 00:50:01;;;;;;;2.40;1.40;;;18.20;68.30;;;;;;5026284;28;20206;-47
2023/03/30 00:52:36;;;;;;;1.97;1.50;;;18.10;68.20;;;;;;5048073;28;20194;-46
2023/03/30 00:55:09;;;;;;;4.37;1.53;;;18.10;68.20;;;;;;5019960;28;20256;-47
2023/03/30 00:57:41;;;;;;;2.03;1.40;;;18.10;68.00;;;;;;5048533;28;20202;-47
2023/03/30 01:00:15;;;;;;;1.63;1.50;;;18.10;68.10;;;;;;5026094;28;20205;-47
2023/03/30 01:02:57;;;;;;;2.60;1.50;;;18.20;68.10;;;;;;5048382;28;20209;-47
2023/03/30 01:05:28;;;;;;;1.83;1.60;;;18.10;67.90;;;;;;5015515;28;20571;-47
2023/03/30 01:07:59;;;;;;;2.80;1.47;;;18.10;67.90;;;;;;5045771;28;20191;-47
2023/03/30 01:10:30;;;;;;;2.63;1.40;;;18.10;67.80;;;;;;5047547;28;20643;-47
2023/03/30 01:13:02;;;;;;;2.40;1.50;;;18.10;67.90;;;;;;5045628;28;20733;-47
2023/03/30 01:16:06;;;;;;;2.77;1.50;;;18.10;67.80;;;;;;5030477;28;20207;-47
2023/03/30 01:19:10;;;;;;;2.63;1.80;;;18.10;67.80;;;;;;5046045;28;20576;-46
2023/03/30 01:22:22;;;;;;;1.90;1.50;;;18.00;67.70;;;;;;5047486;28;20268;-47
2023/03/30 01:25:23;;;;;;;1.87;1.60;;;18.00;67.80;;;;;;5062445;28;20643;-46
2023/03/30 01:28:15;;;;;;;3.23;1.60;;;18.00;67.60;;;;;;5040970;28;20332;-46
2023/03/30 01:31:11;;;;;;;1.43;0.90;;;18.10;67.90;;;;;;5043974;28;20202;-46
2023/03/30 01:34:30;;;;;;;1.80;1.10;;;18.00;67.80;;;;;;5047525;28;20203;-47
2023/03/30 01:37:40;;;;;;;2.07;1.43;;;18.10;67.70;;;;;;4943235;28;20636;-47
2023/03/30 01:40:24;;;;;;;1.70;1.33;;;18.00;67.60;;;;;;4944498;29;20212;-46
2023/03/30 01:43:04;;;;;;;2.70;1.53;;;18.00;67.60;;;;;;5047522;28;20186;-47
2023/03/30 01:46:29;;;;;;;4.07;1.90;;;18.00;67.60;;;;;;5047319;28;20758;-47
2023/03/30 01:49:30;;;;;;;2.57;1.70;;;18.00;67.40;;;;;;5043013;28;20210;-47
2023/03/30 01:52:36;;;;;;;2.20;1.47;;;18.00;67.50;;;;;;5047638;28;20279;-47
2023/03/30 01:55:13;;;;;;;1.60;1.20;;;18.00;67.40;;;;;;4946970;29;20205;-47
2023/03/30 01:58:05;;;;;;;1.87;1.40;;;18.00;67.40;;;;;;5047513;28;20205;-47
2023/03/30 02:00:39;;;;;;;1.80;1.30;;;18.00;67.40;;;;;;5044634;28;20225;-47
2023/03/30 02:03:13;;;;;;;3.07;1.67;;;18.00;67.40;;;;;;5030572;28;20190;-47
2023/03/30 02:05:49;;;;;;;1.57;1.30;;;18.00;67.40;;;;;;5030267;28;20194;-46
2023/03/30 02:08:25;;;;;;;2.33;1.37;;;18.00;67.40;;;;;;5021048;28;20186;-46
2023/03/30 02:11:06;;;;;;;2.17;1.50;;;18.00;67.40;;;;;;5016580;28;20226;-47
2023/03/30 02:13:39;;;;;;;1.43;1.03;;;18.00;67.30;;;;;;5045663;28;20222;-47
2023/03/30 02:16:20;;;;;;;3.40;1.53;;;18.00;67.30;;;;;;5022197;28;20194;-46
2023/03/30 02:18:49;;;;;;;1.93;1.70;;;18.00;67.30;;;;;;5045224;28;20212;-46
2023/03/30 02:21:22;;;;;;;4.83;1.30;;;18.00;67.30;;;;;;5048875;28;20303;-47
2023/03/30 02:23:54;;;;;;;1.20;1.10;;;17.90;67.30;;;;;;5029131;28;20374;-47
2023/03/30 02:26:29;;;;;;;2.27;1.30;;;17.90;67.30;;;;;;5040924;28;20203;-47
2023/03/30 02:29:00;;;;;;;2.20;1.40;;;18.00;67.30;;;;;;5047601;28;20213;-47
2023/03/30 02:31:31;;;;;;;3.03;1.50;;;17.90;67.30;;;;;;5050246;28;20226;-46
2023/03/30 02:34:19;;;;;;;1.83;1.20;;;18.00;67.30;;;;;;5034061;28;20190;-47
2023/03/30 02:37:24;;;;;;;1.30;1.10;;;17.90;67.30;;;;;;5050374;28;20682;-46
2023/03/30 02:40:22;;;;;;;2.53;1.30;;;17.90;67.20;;;;;;5050079;28;20637;-47
2023/03/30 02:43:16;;;;;;;1.47;1.30;;;17.90;67.30;;;;;;5050469;28;20431;-47
2023/03/30 02:46:04;;;;;;;1.30;1.20;;;17.90;67.20;;;;;;5034121;28;20194;-47
2023/03/30 02:48:56;;;;;;;2.60;1.30;;;17.90;67.20;;;;;;5048704;28;20284;-47
2023/03/30 02:51:55;;;;;;;1.93;1.40;;;17.90;67.00;;;;;;5042102;28;20197;-47
2023/03/30 02:55:01;;;;;;;4.60;1.33;;;17.90;67.10;;;;;;5048418;28;20399;-46
2023/03/30 02:58:07;;;;;;;3.10;1.60;;;17.90;67.00;;;;;;5050669;28;20327;-47
2023/03/30 03:01:24;;;;;;;1.80;1.37;;;17.90;67.00;;;;;;5035257;28;20230;-47
2023/03/30 03:04:14;;;;;;;2.17;1.30;;;17.90;67.00;;;;;;5052914;28;20283;-46
2023/03/30 03:06:54;;;;;;;1.43;0.90;;;17.90;67.10;;;;;;5033949;28;20190;-47
2023/03/30 03:09:25;;;;;;;1.77;1.20;;;17.90;66.90;;;;;;5050197;28;20651;-46
2023/03/30 03:11:56;;;;;;;2.47;1.20;;;17.90;67.00;;;;;;5049326;28;20291;-47
2023/03/30 03:14:34;;;;;;;3.47;1.23;;;17.90;66.90;;;;;;5047896;28;20260;-47
2023/03/30 03:17:07;;;;;;;1.70;1.23;;;17.90;67.60;;;;;;5048434;28;20208;-47
2023/03/30 03:19:47;;;;;;;1.73;1.43;;;17.90;66.90;;;;;;5045020;28;20206;-46
2023/03/30 03:22:15;;;;;;;3.40;1.40;;;17.90;66.80;;;;;;5052355;28;20694;-46
2023/03/30 03:24:46;;;;;;;1.53;1.20;;;17.90;66.90;;;;;;5039993;28;20210;-46
2023/03/30 03:27:20;;;;;;;1.47;1.37;;;17.90;66.80;;;;;;5049657;28;20199;-46
2023/03/30 03:29:59;;;;;;;1.90;1.40;;;17.90;66.80;;;;;;5058219;28;20190;-46
2023/03/30 03:32:31;;;;;;;2.63;1.40;;;17.90;66.80;;;;;;5047916;28;20210;-47
2023/03/30 03:35:03;;;;;;;1.60;1.20;;;17.90;66.80;;;;;;5048904;28;20252;-47
2023/03/30 03:37:33;;;;;;;1.77;1.53;;;17.90;66.70;;;;;;5047812;28;20226;-47
2023/03/30 03:40:05;;;;;;;2.47;1.30;;;17.90;66.70;;;;;;5030530;28;20207;-46
2023/03/30 03:42:33;;;;;;;2.63;1.43;;;17.90;66.60;;;;;;5049149;28;20226;-47
2023/03/30 03:45:04;;;;;;;1.27;1.17;;;17.90;66.70;;;;;;5054105;28;20209;-47
2023/03/30 03:47:41;;;;;;;1.47;1.20;;;17.90;66.70;;;;;;5032022;28;20202;-46
2023/03/30 03:50:13;;;;;;;1.23;1.00;;;17.90;66.60;;;;;;5047496;28;20555;-47
2023/03/30 03:52:48;;;;;;;1.80;1.20;;;17.90;66.60;;;;;;5049640;28;20543;-47
2023/03/30 03:55:20;;;;;;;1.30;1.00;;;17.90;66.60;;;;;;5049369;28;20237;-46
2023/03/30 03:57:50;;;;;;;1.97;1.20;;;17.90;66.50;;;;;;5058065;28;20206;-47
2023/03/30 04:00:22;;;;;;;1.27;1.10;;;17.90;66.50;;;;;;5043577;28;20203;-47
2023/03/30 04:02:58;;;;;;;1.40;1.03;;;17.90;66.50;;;;;;5049343;28;20218;-46
2023/03/30 04:05:28;;;;;;;1.67;1.10;;;17.90;66.40;;;;;;5036629;28;20619;-47
2023/03/30 04:08:00;;;;;;;2.53;1.10;;;17.80;66.50;;;;;;5031305;28;20198;-47
2023/03/30 04:10:30;;;;;;;2.90;1.37;;;17.80;66.40;;;;;;5057016;28;20207;-46
2023/03/30 04:12:59;;;;;;;1.53;1.10;;;17.90;66.50;;;;;;5047815;28;20226;-46
2023/03/30 04:15:38;;;;;;;2.63;1.00;;;17.90;66.40;;;;;;5046949;28;20213;-46
2023/03/30 04:18:10;;;;;;;1.30;1.20;;;17.80;66.40;;;;;;5046473;28;20547;-46
2023/03/30 04:20:41;;;;;;;2.20;1.30;;;17.90;66.30;;;;;;5049838;28;20435;-47
2023/03/30 04:23:15;;;;;;;1.87;1.27;;;17.80;66.40;;;;;;5031231;28;20218;-46
2023/03/30 04:25:45;;;;;;;3.10;1.40;;;17.80;66.30;;;;;;5038281;28;20675;-46
2023/03/30 04:28:14;;;;;;;2.50;1.23;;;17.90;66.40;;;;;;5043263;28;20205;-47
2023/03/30 04:30:44;;;;;;;1.90;1.30;;;17.80;66.30;;;;;;5051509;28;20208;-46
2023/03/30 04:33:16;;;;;;;1.60;1.17;;;17.90;66.30;;;;;;5047351;28;20201;-47
2023/03/30 04:35:45;;;;;;;1.77;1.40;;;17.80;66.20;;;;;;5052043;28;20210;-46
2023/03/30 04:38:21;;;;;;;1.50;1.40;;;17.80;66.10;;;;;;5043676;28;20217;-46
2023/03/30 04:40:53;;;;;;;1.67;0.97;;;17.90;66.20;;;;;;5061650;28;20196;-46
2023/03/30 04:43:22;;;;;;;1.57;1.10;;;17.80;66.10;;;;;;5050087;28;20237;-46
2023/03/30 04:46:00;;;;;;;1.60;1.20;;;17.80;66.10;;;;;;5049845;28;20279;-46
2023/03/30 04:48:31;;;;;;;1.97;1.07;;;17.80;66.20;;;;;;5047887;28;20262;-46
2023/03/30 04:51:05;;;;;;;3.87;1.40;;;17.80;66.10;;;;;;5043225;28;20209;-46
2023/03/30 04:53:37;;;;;;;1.27;1.10;;;17.90;66.10;;;;;;5052148;28;20209;-46
2023/03/30 04:56:07;;;;;;;1.37;1.23;;;17.80;66.00;;;;;;5047341;28;20194;-46
2023/03/30 04:58:40;;;;;;;2.13;1.33;;;17.80;65.90;;;;;;5051842;28;20198;-46
2023/03/30 05:01:09;;;;;;;1.70;0.90;;;17.80;65.90;;;;;;5046058;28;20221;-47
2023/03/30 05:03:42;;;;;;;1.23;0.80;;;17.80;65.80;;;;;;5047657;28;20620;-46
2023/03/30 05:06:17;;;;;;;2.07;1.20;;;17.80;65.80;;;;;;5043495;28;20194;-48
2023/03/30 05:08:49;;;;;;;2.47;1.30;;;17.80;65.80;;;;;;5029344;28;20561;-48
2023/03/30 05:11:19;;;;;;;1.90;1.20;;;17.80;65.90;;;;;;5055554;28;21109;-47
2023/03/30 05:13:52;;;;;;;3.27;1.10;;;17.80;65.80;;;;;;5045054;28;20224;-47
2023/03/30 05:16:24;;;;;;;3.07;1.70;;;17.80;65.70;;;;;;5040861;28;20213;-48
2023/03/30 05:18:58;;;;;;;6.23;2.00;;;17.80;65.50;;;;;;5050003;28;20625;-47
2023/03/30 05:21:26;;;;;;;7.53;2.70;;;17.80;65.70;;;;;;5058088;28;20256;-48
2023/03/30 05:23:57;;;;;;;10.63;3.80;;;17.90;65.80;;;;;;5047099;28;20209;-47
2023/03/30 05:26:27;;;;;;;18.23;5.87;;;17.90;65.00;;;;;;5043538;28;20206;-47
2023/03/30 05:28:58;;;;;;;24.83;6.97;;;17.90;64.90;;;;;;5030631;28;20199;-46
2023/03/30 05:31:28;;;;;;;24.47;6.03;;;17.90;64.70;;;;;;5046423;28;20194;-47
2023/03/30 05:33:58;;;;;;;23.53;6.83;;;17.90;64.80;;;;;;5049902;28;20205;-47
2023/03/30 05:36:28;;;;;;;23.30;6.63;;;17.90;64.80;;;;;;5041658;28;20219;-47
2023/03/30 05:38:58;;;;;;;26.93;8.00;;;17.90;64.80;;;;;;5008609;28;20210;-46
2023/03/30 05:41:27;;;;;;;23.83;6.73;;;17.90;64.60;;;;;;5034425;28;20206;-46
2023/03/30 05:43:56;;;;;;;22.77;6.70;;;17.90;64.80;;;;;;5047499;28;20718;-46
2023/03/30 05:46:27;;;;;;;20.70;6.00;;;17.90;64.60;;;;;;5028161;28;20590;-46
2023/03/30 05:49:00;;;;;;;21.67;6.53;;;17.90;64.40;;;;;;5046954;28;20260;-47
2023/03/30 05:51:31;;;;;;;26.50;7.37;;;17.90;64.30;;;;;;5046532;28;20233;-46
2023/03/30 05:54:14;;;;;;;24.37;7.47;;;17.90;64.30;;;;;;5044079;28;20659;-46
2023/03/30 05:56:42;;;;;;;24.00;7.00;;;17.90;64.20;;;;;;5047347;28;20194;-47
2023/03/30 05:59:13;;;;;;;19.97;6.50;;;17.90;64.60;;;;;;5047445;28;20370;-47
2023/03/30 06:01:44;;;;;;;25.57;6.67;;;17.90;64.70;;;;;;5044202;28;20219;-46
2023/03/30 06:04:16;;;;;;;21.37;6.47;;;17.90;64.30;;;;;;5033756;28;20589;-46
2023/03/30 06:06:50;;;;;;;18.47;5.50;;;17.90;64.40;;;;;;5033284;28;20679;-47
2023/03/30 06:09:19;;;;;;;21.03;6.87;;;17.90;64.40;;;;;;5051651;28;20567;-46
2023/03/30 06:11:50;;;;;;;17.07;5.33;;;17.90;64.10;;;;;;5050341;28;20238;-46
2023/03/30 06:14:21;;;;;;;17.80;4.77;;;17.90;64.20;;;;;;5046139;28;20194;-47
2023/03/30 06:16:50;;;;;;;16.93;5.90;;;17.90;64.30;;;;;;5043804;28;20269;-47
2023/03/30 06:19:20;;;;;;;21.57;5.27;;;17.90;64.50;;;;;;5057549;28;20236;-47
2023/03/30 06:21:48;;;;;;;16.73;5.27;;;17.90;64.10;;;;;;5049921;28;20194;-47
2023/03/30 06:24:19;;;;;;;17.97;5.27;;;17.90;64.20;;;;;;5046708;28;20194;-47
2023/03/30 06:26:54;;;;;;;14.73;5.03;;;17.90;64.20;;;;;;5050966;28;20556;-46
2023/03/30 06:29:37;;;;;;;13.00;4.77;;;17.90;64.30;;;;;;5051291;28;20210;-46
2023/03/30 06:32:10;;;;;;;17.17;4.87;;;17.90;64.40;;;;;;5048759;28;20198;-46
2023/03/30 06:34:37;;;;;;;15.47;3.90;;;17.90;64.30;;;;;;5053737;28;20194;-46
2023/03/30 06:37:07;;;;;;;15.43;5.17;;;17.90;64.20;;;;;;5048355;28;20234;-46
2023/03/30 06:39:38;;;;;;;11.53;4.30;;;17.90;64.30;;;;;;5033034;28;20206;-46
2023/03/30 06:42:07;;;;;;;17.00;4.60;;;17.80;64.10;;;;;;5049673;28;20233;-46
2023/03/30 06:44:36;;;;;;;13.03;4.47;;;17.90;64.10;;;;;;5051841;28;20221;-46
2023/03/30 06:47:07;;;;;;;13.83;4.30;;;17.90;64.00;;;;;;5057677;28;20646;-46
2023/03/30 06:49:38;;;;;;;12.17;4.33;;;17.90;64.10;;;;;;5036448;28;20643;-46
2023/03/30 06:52:12;;;;;;;11.40;3.70;;;17.90;64.00;;;;;;5048314;28;20194;-46
2023/03/30 06:54:41;;;;;;;10.17;3.70;;;17.90;64.20;;;;;;5050526;28;20218;-46
2023/03/30 06:57:12;;;;;;;9.80;4.03;;;17.90;64.10;;;;;;5051060;28;20202;-46
2023/03/30 06:59:43;;;;;;;11.37;3.87;;;17.90;64.20;;;;;;5050748;28;20519;-46
2023/03/30 07:02:26;;;;;;;9.23;3.33;;;17.90;64.20;;;;;;5049646;28;20309;-47
2023/03/30 07:04:59;;;;;;;11.00;3.63;;;17.90;64.20;;;;;;5045327;28;20214;-47
2023/03/30 07:07:31;;;;;;;9.57;3.23;;;17.90;63.80;;;;;;5049264;28;20685;-47
2023/03/30 07:09:59;;;;;;;12.50;3.30;;;17.90;63.80;;;;;;5050624;28;20198;-47
2023/03/30 07:12:30;;;;;;;8.23;4.00;;;17.90;64.00;;;;;;5046758;28;20563;-46
2023/03/30 07:15:00;;;;;;;12.07;3.40;;;17.90;63.90;;;;;;5049849;28;20195;-47
2023/03/30 07:17:32;;;;;;;9.77;3.30;;;17.90;63.80;;;;;;5050391;28;20574;-47
2023/03/30 07:20:02;;;;;;;8.53;3.50;;;17.90;63.80;;;;;;5032820;28;20622;-46
2023/03/30 07:22:30;;;;;;;6.57;3.23;;;17.90;63.90;;;;;;5048506;28;20586;-47
2023/03/30 07:25:05;;;;;;;7.70;3.27;;;17.90;64.00;;;;;;5056693;28;20248;-47
2023/03/30 07:27:39;;;;;;;6.47;2.80;;;17.90;63.90;;;;;;5049602;28;20191;-47
2023/03/30 07:30:11;;;;;;;8.47;2.80;;;17.90;63.70;;;;;;5035760;28;20205;-53
2023/03/30 07:32:49;;;;;;;7.00;3.00;;;17.90;63.90;;;;;;5045307;28;20214;-47
2023/03/30 07:35:22;;;;;;;7.13;2.87;;;17.90;63.80;;;;;;5033165;28;20209;-47
2023/03/30 07:37:55;;;;;;;8.23;2.80;;;17.90;63.50;;;;;;5030030;28;20225;-47
2023/03/30 07:40:34;;;;;;;5.47;2.57;;;17.90;63.70;;;;;;5049290;28;20214;-47
2023/03/30 07:43:06;;;;;;;5.27;2.77;;;17.90;63.70;;;;;;5049719;28;20210;-47
2023/03/30 07:45:37;;;;;;;7.33;2.43;;;17.90;63.80;;;;;;5036041;28;20201;-46
2023/03/30 07:48:07;;;;;;;6.20;2.50;;;17.90;63.70;;;;;;5049272;28;20564;-47
2023/03/30 07:50:36;;;;;;;8.97;2.80;;;17.90;63.70;;;;;;5045996;28;20553;-47
2023/03/30 07:53:07;;;;;;;4.57;2.30;;;17.90;63.80;;;;;;5032528;28;20264;-47
2023/03/30 07:55:36;;;;;;;6.10;2.50;;;17.90;63.70;;;;;;5049189;28;20195;-47
2023/03/30 07:58:08;;;;;;;5.53;2.30;;;17.90;64.00;;;;;;5048134;28;20280;-46
2023/03/30 08:00:38;;;;;;;5.90;2.33;;;17.90;64.20;;;;;;5033235;28;20302;-47
2023/03/30 08:03:10;;;;;;;6.80;2.20;;;17.90;63.60;;;;;;5049514;28;20214;-47
2023/03/30 08:05:42;;;;;;;3.93;2.10;;;17.90;63.70;;;;;;5049136;28;20215;-46
2023/03/30 08:08:14;;;;;;;5.13;2.30;;;17.90;63.80;;;;;;5030610;28;20273;-47
2023/03/30 08:10:45;;;;;;;7.37;2.10;;;17.90;63.50;;;;;;5048483;28;20202;-46
2023/03/30 08:13:14;;;;;;;5.03;2.10;;;17.90;63.60;;;;;;5042572;28;20265;-47
2023/03/30 08:15:45;;;;;;;4.77;2.23;;;17.90;63.50;;;;;;5052782;28;20199;-47
2023/03/30 08:18:17;;;;;;;5.97;2.03;;;17.90;63.90;;;;;;5046102;28;20194;-46
2023/03/30 08:20:51;;;;;;;4.50;1.80;;;17.90;63.30;;;;;;5047891;28;20332;-47
2023/03/30 08:23:27;;;;;;;5.43;1.90;;;17.90;63.20;;;;;;5016693;28;20256;-47
2023/03/30 08:25:58;;;;;;;6.67;1.93;;;18.00;63.40;;;;;;5029616;28;20749;-47
2023/03/30 08:28:30;;;;;;;4.00;1.87;;;18.00;63.40;;;;;;5037363;28;20218;-47
2023/03/30 08:31:07;;;;;;;4.97;1.80;;;18.00;63.40;;;;;;5046819;28;20202;-46
2023/03/30 08:33:40;;;;;;;7.00;1.87;;;17.90;63.50;;;;;;5032452;28;20197;-46
2023/03/30 08:36:14;;;;;;;6.27;2.00;;;18.00;63.20;;;;;;5046893;28;20217;-46
2023/03/30 08:38:45;;;;;;;6.63;1.80;;;18.00;63.20;;;;;;5036447;28;20202;-47
2023/03/30 08:41:38;;;;;;;6.40;1.97;;;17.90;63.10;;;;;;5048302;28;20275;-48
2023/03/30 08:44:33;;;;;;;3.27;1.50;;;18.00;63.30;;;;;;5047923;28;20270;-48
2023/03/30 08:47:04;;;;;;;5.77;1.50;;;18.00;63.30;;;;;;5048150;28;20186;-46
2023/03/30 08:49:55;;;;;;;4.67;1.43;;;18.00;63.20;;;;;;5028073;28;20631;-47
2023/03/30 08:52:27;;;;;;;4.23;1.40;;;18.00;63.20;;;;;;5030386;28;20190;-47
2023/03/30 08:54:57;;;;;;;7.03;1.70;;;18.00;63.20;;;;;;5048188;28;20204;-47
2023/03/30 08:57:58;;;;;;;2.70;1.60;;;18.00;63.10;;;;;;5048670;28;20198;-47
2023/03/30 09:00:55;;;;;;;4.90;1.60;;;18.00;63.30;;;;;;5043525;28;20556;-46
2023/03/30 09:03:47;;;;;;;4.83;1.53;;;18.00;63.00;;;;;;5030240;28;20224;-46
2023/03/30 09:06:28;;;;;;;4.97;1.80;;;18.00;63.20;;;;;;5038038;28;20194;-47
2023/03/30 09:09:00;;;;;;;4.20;1.43;;;18.00;63.00;;;;;;5048275;28;20804;-46
2023/03/30 09:11:35;;;;;;;4.50;1.30;;;18.00;62.80;;;;;;5047630;28;20198;-46
2023/03/30 09:14:47;;;;;;;4.47;1.60;;;18.00;63.00;;;;;;5030324;28;20199;-46
2023/03/30 09:17:59;;;;;;;5.57;1.50;;;18.00;63.20;;;;;;5015623;28;20203;-47
2023/03/30 09:20:39;;;;;;;5.63;1.90;;;18.00;63.30;;;;;;5029906;28;20198;-47
2023/03/30 09:23:16;;;;;;;4.73;1.60;;;18.00;63.30;;;;;;5033879;28;20263;-47
2023/03/30 09:25:52;;;;;;;3.77;1.57;;;18.00;63.20;;;;;;5040965;28;20210;-46
2023/03/30 09:28:47;;;;;;;5.10;1.77;;;18.00;63.30;;;;;;5044986;28;20190;-47
2023/03/30 09:31:43;;;;;;;5.60;2.10;;;18.10;63.40;;;;;;5047598;28;20198;-47
2023/03/30 09:34:27;;;;;;;4.37;1.80;;;18.00;63.20;;;;;;5052718;28;20194;-46
2023/03/30 09:37:15;;;;;;;4.07;1.83;;;18.10;63.40;;;;;;5045538;28;20218;-47
2023/03/30 09:39:45;;;;;;;3.63;1.20;;;18.00;63.30;;;;;;5029708;28;20194;-46
2023/03/30 09:42:39;;;;;;;3.57;1.30;;;18.10;63.40;;;;;;5016429;28;20276;-47
2023/03/30 09:45:24;;;;;;;2.53;1.13;;;18.10;63.20;;;;;;5038223;28;20245;-46
2023/03/30 09:47:55;;;;;;;5.43;1.50;;;18.10;63.20;;;;;;5031069;28;20198;-48
2023/03/30 09:50:27;;;;;;;3.97;1.40;;;18.10;63.00;;;;;;5042345;28;20462;-46
2023/03/30 09:53:28;;;;;;;5.23;1.70;;;18.10;62.90;;;;;;5033910;28;20857;-47
2023/03/30 09:56:13;;;;;;;3.27;1.57;;;18.10;63.10;;;;;;5033717;28;20198;-47
2023/03/30 09:58:43;;;;;;;6.20;1.50;;;18.10;63.20;;;;;;5047691;28;20573;-47
2023/03/30 10:01:17;;;;;;;4.33;1.70;;;18.10;63.10;;;;;;5027765;28;20769;-48
2023/03/30 10:04:09;;;;;;;4.33;1.80;;;18.10;62.90;;;;;;5014593;28;20218;-47
2023/03/30 10:06:48;;;;;;;4.97;1.60;;;18.10;62.90;;;;;;5031157;28;20194;-47
2023/03/30 10:09:22;;;;;;;4.37;1.73;;;18.10;62.80;;;;;;5042335;28;20609;-47
2023/03/30 10:12:05;;;;;;;3.47;1.70;;;18.10;62.90;;;;;;5035421;28;20261;-47
2023/03/30 10:14:54;;;;;;;4.10;1.67;;;18.20;63.00;;;;;;5047119;28;20651;-47
2023/03/30 10:17:28;;;;;;;4.57;1.30;;;18.10;62.90;;;;;;5046592;28;20809;-46
2023/03/30 10:20:28;;;;;;;3.50;1.23;;;18.10;62.90;;;;;;5060484;28;20191;-46
2023/03/30 10:23:19;;;;;;;5.73;1.80;;;18.10;62.90;;;;;;5046837;28;20329;-46
2023/03/30 10:25:50;;;;;;;5.93;1.80;;;18.20;62.70;;;;;;5033610;28;20190;-46
2023/03/30 10:28:32;;;;;;;3.27;1.70;;;18.10;62.60;;;;;;5029452;28;20270;-47
2023/03/30 10:31:14;;;;;;;3.50;1.40;;;18.20;62.70;;;;;;5045917;28;20202;-46
2023/03/30 10:33:44;;;;;;;4.73;1.40;;;18.20;62.60;;;;;;5029774;28;20639;-47
2023/03/30 10:36:17;;;;;;;6.13;1.70;;;18.20;62.50;;;;;;5042786;28;20206;-46
2023/03/30 10:39:19;;;;;;;5.57;1.57;;;18.20;62.40;;;;;;5032744;28;20640;-46
2023/03/30 10:41:53;;;;;;;5.50;2.03;;;18.20;62.40;;;;;;5048257;28;20546;-48
2023/03/30 10:44:40;;;;;;;5.00;1.90;;;18.20;62.50;;;;;;5024022;28;20566;-48
2023/03/30 10:47:56;;;;;;;3.93;1.50;;;18.20;62.20;;;;;;5035470;28;20234;-47
2023/03/30 10:51:03;;;;;;;4.80;1.40;;;18.20;62.30;;;;;;4955676;28;20271;-47
2023/03/30 10:53:54;;;;;;;5.73;1.90;;;18.20;62.50;;;;;;5048169;28;20927;-47
2023/03/30 10:56:42;;;;;;;5.50;1.80;;;18.20;62.40;;;;;;5052619;28;20203;-46
2023/03/30 10:59:44;;;;;;;4.70;1.43;;;18.20;62.40;;;;;;5050629;28;20328;-46
2023/03/30 11:02:46;;;;;;;5.50;1.50;;;18.20;62.40;;;;;;5038758;28;20303;-47
2023/03/30 11:05:23;;;;;;;4.90;1.63;;;18.20;62.20;;;;;;5045200;28;20717;-47
2023/03/30 11:08:10;;;;;;;4.80;1.67;;;18.20;62.00;;;;;;5049905;28;20267;-46
2023/03/30 11:10:44;;;;;;;4.40;1.37;;;18.20;62.30;;;;;;5050332;28;20198;-46
2023/03/30 11:13:41;;;;;;;6.90;2.17;;;18.30;62.20;;;;;;5009626;28;20227;-46
2023/03/30 11:16:34;;;;;;;3.57;1.47;;;18.30;62.20;;;;;;5028123;28;20230;-46
2023/03/30 11:19:38;;;;;;;4.60;1.53;;;18.30;62.00;;;;;;5020635;28;20190;-47
2023/03/30 11:22:52;;;;;;;4.13;1.70;;;18.30;62.20;;;;;;5027678;28;20199;-45
2023/03/30 11:25:31;;;;;;;3.47;1.37;;;18.30;62.00;;;;;;5013570;28;20211;-46
2023/03/30 11:28:16;;;;;;;4.43;1.37;;;18.30;61.90;;;;;;5034651;28;20852;-45
2023/03/30 11:30:47;;;;;;;3.17;1.43;;;18.30;61.90;;;;;;5030371;28;20206;-46
2023/03/30 11:33:36;;;;;;;5.17;1.63;;;18.40;61.90;;;;;;5032216;28;20186;-46
2023/03/30 11:36:22;;;;;;;6.40;2.03;;;18.30;61.70;;;;;;5032257;28;20192;-45
2023/03/30 11:39:14;;;;;;;7.33;1.90;;;18.40;61.80;;;;;;5031066;28;20260;-46
2023/03/30 11:42:08;;;;;;;4.97;1.57;;;18.40;61.80;;;;;;5020266;28;20192;-47
2023/03/30 11:44:36;;;;;;;6.20;1.83;;;18.40;61.90;;;;;;5029538;28;20230;-46
2023/03/30 11:47:33;;;;;;;4.87;1.80;;;18.40;61.80;;;;;;5030846;28;20186;-45
2023/03/30 11:50:46;;;;;;;5.50;1.70;;;18.40;62.00;;;;;;5022734;28;20243;-46
2023/03/30 11:53:31;;;;;;;3.70;1.23;;;18.40;61.90;;;;;;5012093;28;20191;-46
2023/03/30 11:56:28;;;;;;;6.63;1.50;;;18.40;61.60;;;;;;5032522;28;20202;-46
2023/03/30 11:59:26;;;;;;;6.67;1.37;;;18.40;61.90;;;;;;5029643;28;20195;-46
2023/03/30 12:02:32;;;;;;;5.37;1.67;;;18.40;61.70;;;;;;5025041;28;20203;-47
2023/03/30 12:05:22;;;;;;;4.33;1.50;;;18.40;62.00;;;;;;4983088;28;20236;-46
2023/03/30 12:08:25;;;;;;;7.30;1.67;;;18.40;62.30;;;;;;4989378;28;20552;-46
2023/03/30 12:11:08;;;;;;;5.63;1.80;;;18.40;62.40;;;;;;4987241;28;20203;-45
2023/03/30 12:13:38;;;;;;;3.63;1.67;;;18.40;62.40;;;;;;4975930;28;20232;-46
2023/03/30 12:16:41;;;;;;;4.63;1.40;;;18.40;62.50;;;;;;4997600;28;20239;-45
2023/03/30 12:19:47;;;;;;;4.47;1.50;;;18.40;62.50;;;;;;4988979;28;20259;-46
2023/03/30 12:22:40;;;;;;;3.57;1.47;;;18.50;62.60;;;;;;5015078;28;20210;-45
2023/03/30 12:25:50;;;;;;;3.57;1.20;;;18.40;62.50;;;;;;5024057;28;20262;-45
2023/03/30 12:28:24;;;;;;;3.90;1.33;;;18.40;62.40;;;;;;5027174;28;20209;-45
2023/03/30 12:31:15;;;;;;;4.47;1.30;;;18.50;62.30;;;;;;5013373;28;20215;-45
2023/03/30 12:34:04;;;;;;;4.70;1.30;;;18.50;62.00;;;;;;5013638;28;20187;-46
2023/03/30 12:36:47;;;;;;;10.10;1.20;;;18.50;62.40;;;;;;5023462;28;20431;-46
2023/03/30 12:39:32;;;;;;;5.80;1.57;;;18.50;62.30;;;;;;5015705;28;20233;-45
2023/03/30 12:42:25;;;;;;;2.80;1.43;;;18.50;62.50;;;;;;5030997;28;20769;-46
2023/03/30 12:45:24;;;;;;;4.50;1.70;;;18.50;62.30;;;;;;5009527;28;20856;-45
2023/03/30 12:48:30;;;;;;;3.10;1.20;;;18.50;62.50;;;;;;5030517;28;20254;-44
2023/03/30 12:51:35;;;;;;;5.43;1.70;;;18.50;62.50;;;;;;5007575;28;20526;-45
2023/03/30 12:54:44;;;;;;;4.30;1.37;;;18.50;62.40;;;;;;5009988;28;20202;-46
2023/03/30 12:57:41;;;;;;;5.70;1.30;;;18.50;62.50;;;;;;5028862;28;20241;-45
2023/03/30 13:00:35;;;;;;;4.63;1.20;;;18.50;62.50;;;;;;5018960;28;20206;-45
2023/03/30 13:03:27;;;;;;;4.20;1.20;;;18.50;62.50;;;;;;5025476;28;20195;-45
2023/03/30 13:06:05;;;;;;;4.40;1.10;;;18.50;62.30;;;;;;5026552;28;20210;-46
2023/03/30 13:08:45;;;;;;;3.73;1.30;;;18.50;62.40;;;;;;5012187;28;20190;-45
2023/03/30 13:11:29;;;;;;;3.37;1.33;;;18.60;62.40;;;;;;5010310;28;20223;-45
2023/03/30 13:14:16;;;;;;;3.13;1.30;;;18.60;62.30;;;;;;5042297;28;20233;-46
2023/03/30 13:16:52;;;;;;;3.60;1.40;;;18.50;62.20;;;;;;5045629;28;20186;-45
2023/03/30 13:19:37;;;;;;;6.80;1.60;;;18.60;62.20;;;;;;5046148;28;20652;-46
2023/03/30 13:22:14;;;;;;;3.70;1.23;;;18.60;62.30;;;;;;5046265;28;20548;-46
2023/03/30 13:25:18;;;;;;;3.03;1.23;;;18.60;62.20;;;;;;5043215;28;20233;-46
2023/03/30 13:27:51;;;;;;;4.10;1.40;;;18.60;62.30;;;;;;5043193;28;20260;-55
2023/03/30 13:30:28;;;;;;;3.23;1.20;;;18.60;62.20;;;;;;5024670;28;20542;-46
2023/03/30 13:33:16;;;;;;;5.40;1.93;;;18.60;62.20;;;;;;5027203;28;20222;-46
2023/03/30 13:36:12;;;;;;;4.27;1.27;;;18.60;62.10;;;;;;5045339;28;20536;-45
2023/03/30 13:39:13;;;;;;;4.10;1.20;;;18.60;62.20;;;;;;5042207;28;20228;-45
2023/03/30 13:42:02;;;;;;;3.33;1.20;;;18.60;62.00;;;;;;5044902;28;20627;-45
2023/03/30 13:45:14;;;;;;;3.67;1.17;;;18.60;62.10;;;;;;5042857;28;20245;-46
2023/03/30 13:48:23;;;;;;;3.47;1.53;;;18.60;62.00;;;;;;5026350;28;20202;-46
2023/03/30 13:51:03;;;;;;;3.93;1.63;;;18.60;62.50;;;;;;5045430;28;20573;-46
2023/03/30 13:53:48;;;;;;;7.67;2.03;;;18.60;62.30;;;;;;5019745;28;20248;-45